Time;durP1;ratioP1;P1;durP2;ratioP2;P2;SDS_P1;SDS_P2;PMS_P1;PMS_P2;Temp;Humidity;BMP_temperature;BMP_pressure;BME280_temperature;BME280_humidity;BME280_pressure;Samples;Min_cycle;Max_cycle;Signal;HPM_P1;HPM_P2
2022/04/30 00:00:29;;;;;;;2.08;1.50;;;6.20;1.40;;;7.48;100.00;95819.67;648149;212;31599;-76
2022/04/30 00:03:16;;;;;;;2.25;2.05;;;6.10;1.40;;;7.42;100.00;95819.39;646737;212;31563;-74
2022/04/30 00:06:04;;;;;;;2.20;2.00;;;6.20;1.40;;;7.46;100.00;95816.39;647362;216;32393;-75
2022/04/30 00:08:48;;;;;;;2.33;1.90;;;6.20;1.40;;;7.54;100.00;95819.38;640814;216;31711;-73
2022/04/30 00:11:38;;;;;;;1.50;1.40;;;6.30;1.40;;;7.52;100.00;95816.73;618425;226;32037;-75
2022/04/30 00:14:21;;;;;;;2.50;1.12;;;6.20;1.40;;;7.56;100.00;95816.61;648422;212;32121;-76
2022/04/30 00:17:03;;;;;;;1.42;1.05;;;6.30;1.40;;;7.54;100.00;95814.03;648262;216;31925;-75
2022/04/30 00:19:50;;;;;;;3.10;1.95;;;6.20;1.40;;;7.53;100.00;95813.72;647460;216;32703;-74
2022/04/30 00:22:38;;;;;;;1.98;1.87;;;6.20;1.40;;;7.51;100.00;95805.84;647194;216;42208;-77
2022/04/30 00:25:20;;;;;;;2.10;1.87;;;6.20;1.40;;;7.46;100.00;95804.62;648264;212;41922;-75
2022/04/30 00:28:01;;;;;;;2.03;1.63;;;6.10;1.40;;;7.40;100.00;95803.87;646380;212;31562;-74
2022/04/30 00:30:44;;;;;;;2.60;1.70;;;6.20;1.40;;;7.39;100.00;95797.83;620105;226;32112;-75
2022/04/30 00:35:54;;;;;;;2.10;1.58;;;6.20;1.40;;;7.41;100.00;95800.63;622523;222;31883;-76
2022/04/30 00:38:37;;;;;;;2.33;1.60;;;6.10;1.40;;;7.43;100.00;95805.31;647042;216;31557;-73
2022/04/30 00:41:27;;;;;;;2.55;2.20;;;6.00;1.40;;;7.47;100.00;95802.47;646463;216;31548;-75
2022/04/30 00:44:10;;;;;;;2.55;1.60;;;6.20;1.40;;;7.50;100.00;95800.67;620876;222;32018;-76
2022/04/30 00:46:58;;;;;;;1.40;1.30;;;6.30;1.40;;;7.52;100.00;95800.61;647440;212;31586;-75
2022/04/30 00:49:47;;;;;;;2.28;1.50;;;6.30;1.40;;;7.54;100.00;95795.09;650233;212;33510;-77
2022/04/30 00:52:28;;;;;;;2.07;1.97;;;6.30;1.40;;;7.52;100.00;95797.53;648070;212;31668;-77
2022/04/30 00:55:10;;;;;;;2.65;2.45;;;6.20;1.40;;;7.52;100.00;95794.08;648215;216;31569;-75
2022/04/30 00:57:54;;;;;;;2.53;2.00;;;6.10;1.40;;;7.54;100.00;95788.84;646140;212;35937;-74
2022/04/30 01:00:41;;;;;;;2.40;1.85;;;6.00;1.40;;;7.54;100.00;95786.78;646816;212;31594;-74
2022/04/30 01:03:20;;;;;;;2.70;1.77;;;6.10;1.40;;;7.40;100.00;95783.31;647716;216;31613;-75
2022/04/30 01:06:03;;;;;;;1.40;1.30;;;6.00;1.40;;;7.40;100.00;95783.86;648515;216;31709;-75
2022/04/30 01:08:48;;;;;;;2.00;1.20;;;5.90;1.40;;;7.32;100.00;95778.55;612396;222;33029;-75
2022/04/30 01:11:27;;;;;;;2.28;1.55;;;5.90;1.40;;;7.32;100.00;95781.67;648117;216;31548;-74
2022/04/30 01:14:11;;;;;;;1.55;1.45;;;5.90;1.40;;;7.30;100.00;95778.23;645964;216;31576;-74
2022/04/30 01:16:59;;;;;;;2.80;1.95;;;5.90;1.40;;;7.42;100.00;95776.13;632717;218;42331;-77
2022/04/30 01:19:43;;;;;;;2.10;1.90;;;5.90;1.40;;;7.53;100.00;95775.89;646392;212;31654;-74
2022/04/30 01:22:31;;;;;;;1.90;1.40;;;5.90;1.40;;;7.20;100.00;95772.58;648104;216;32180;-76
2022/04/30 01:25:12;;;;;;;2.28;1.30;;;5.50;1.40;;;6.89;100.00;95771.13;646568;212;32105;-74
2022/04/30 01:27:54;;;;;;;1.07;1.00;;;5.30;1.40;;;6.77;100.00;95766.70;647651;216;31816;-76
2022/04/30 01:30:38;;;;;;;2.50;1.30;;;5.10;1.40;;;6.65;100.00;95765.84;646398;212;31544;-74
2022/04/30 01:38:40;;;;;;;18.30;11.32;;;5.20;1.40;;;6.64;100.00;95760.29;619879;226;31960;-74
2022/04/30 01:41:21;;;;;;;20.05;11.07;;;5.40;1.40;;;6.79;100.00;95751.67;647019;212;31634;-75
2022/04/30 01:44:09;;;;;;;9.50;5.53;;;5.60;1.40;;;6.67;100.00;95749.84;647224;216;31734;-72
2022/04/30 01:46:49;;;;;;;12.70;7.33;;;5.50;1.40;;;6.68;100.00;95746.81;645706;215;31883;-72
2022/04/30 01:49:31;;;;;;;11.23;7.15;;;5.40;1.40;;;6.79;100.00;95749.78;646340;212;32194;-73
2022/04/30 01:52:19;;;;;;;11.45;7.53;;;5.30;1.40;;;6.75;100.00;95746.19;647751;212;32153;-77
2022/04/30 01:55:07;;;;;;;13.95;11.63;;;5.30;1.40;;;6.73;100.00;95746.41;646338;216;42184;-74
2022/04/30 01:57:54;;;;;;;24.85;15.30;;;5.30;1.40;;;6.71;100.00;95740.91;648310;212;31604;-75
2022/04/30 02:00:37;;;;;;;10.30;6.95;;;5.20;1.40;;;6.57;100.00;95739.45;646677;216;31901;-74
2022/04/30 02:03:26;;;;;;;4.60;3.55;;;5.20;1.40;;;6.62;100.00;95736.11;646585;216;43042;-73
2022/04/30 02:06:13;;;;;;;4.32;3.25;;;5.20;1.40;;;6.66;100.00;95728.77;647196;216;31577;-75
2022/04/30 02:08:55;;;;;;;3.80;2.40;;;5.20;1.40;;;6.59;100.00;95726.95;647729;216;31554;-76
2022/04/30 02:11:38;;;;;;;3.05;2.70;;;5.20;1.40;;;6.58;100.00;95723.40;647172;212;31659;-75
2022/04/30 02:14:19;;;;;;;4.00;3.10;;;5.20;1.40;;;6.59;100.00;95721.89;648069;212;31745;-74
2022/04/30 02:17:01;;;;;;;10.40;2.55;;;5.20;1.40;;;6.64;100.00;95713.64;646040;212;31591;-75
2022/04/30 02:22:38;;;;;;;5.97;3.17;;;5.20;1.40;;;6.62;100.00;95700.12;641886;214;31600;-74
2022/04/30 02:25:24;;;;;;;4.80;2.70;;;5.10;1.40;;;6.51;100.00;95695.73;643133;217;31599;-76
2022/04/30 02:28:08;;;;;;;1.75;1.65;;;5.10;1.40;;;6.55;100.00;95700.56;646610;216;31565;-74
2022/04/30 02:30:50;;;;;;;2.90;2.17;;;5.20;1.40;;;6.63;100.00;95694.95;646100;216;32204;-73
2022/04/30 02:35:53;;;;;;;3.35;1.90;;;5.20;1.40;;;6.59;100.00;95686.28;646775;213;31551;-73
2022/04/30 02:38:37;;;;;;;5.70;2.50;;;5.10;1.40;;;6.49;100.00;95687.35;647903;212;42732;-76
2022/04/30 02:41:21;;;;;;;4.20;2.58;;;5.00;1.40;;;6.35;100.00;95688.24;646739;216;42189;-73
2022/04/30 02:44:04;;;;;;;1.50;1.40;;;5.00;1.40;;;6.49;100.00;95685.90;647852;212;31522;-73
2022/04/30 02:46:47;;;;;;;1.50;1.40;;;5.00;1.40;;;6.36;100.00;95684.20;645696;216;42221;-74
2022/04/30 02:49:29;;;;;;;2.50;2.17;;;5.00;1.40;;;6.26;100.00;95679.02;647643;212;31584;-74
2022/04/30 02:52:13;;;;;;;2.35;1.23;;;4.90;1.40;;;6.19;100.00;95665.79;647599;216;31575;-74
2022/04/30 02:54:54;;;;;;;1.70;1.60;;;4.80;1.40;;;6.21;100.00;95666.75;646716;216;32512;-73
2022/04/30 03:00:37;;;;;;;1.85;1.27;;;4.70;1.40;;;6.18;100.00;95668.38;647094;212;31554;-73
2022/04/30 03:03:17;;;;;;;3.58;1.58;;;4.70;1.40;;;6.12;100.00;95664.64;647384;216;31528;-75
2022/04/30 03:05:59;;;;;;;2.10;1.00;;;4.70;1.40;;;6.07;100.00;95662.59;648503;216;42187;-74
2022/04/30 03:08:41;;;;;;;1.48;1.37;;;4.60;1.40;;;6.09;100.00;95666.25;637493;216;31721;-75
2022/04/30 03:11:28;;;;;;;1.67;1.30;;;4.60;1.40;;;5.87;100.00;95663.69;645709;212;42842;-73
2022/04/30 03:14:16;;;;;;;1.35;1.25;;;4.40;1.40;;;5.65;100.00;95660.48;646016;216;31526;-74
2022/04/30 03:22:40;;;;;;;2.20;1.80;;;4.30;1.40;;;5.47;100.00;95659.36;647204;216;31527;-73
2022/04/30 03:25:23;;;;;;;2.00;1.20;;;4.20;1.40;;;5.65;100.00;95657.20;648602;212;42159;-75
2022/04/30 03:28:11;;;;;;;1.50;1.10;;;4.30;1.40;;;5.63;100.00;95652.95;646851;216;31560;-73
2022/04/30 03:30:55;;;;;;;1.90;1.35;;;4.30;1.40;;;5.59;100.00;95650.73;620976;222;31985;-74
2022/04/30 03:35:57;;;;;;;2.40;2.20;;;4.30;1.40;;;5.60;100.00;95651.17;647000;216;31587;-73
2022/04/30 03:38:45;;;;;;;1.27;1.17;;;4.40;1.40;;;5.65;100.00;95654.77;646773;212;31537;-77
2022/04/30 03:41:28;;;;;;;2.30;2.10;;;4.40;1.40;;;5.64;100.00;95660.58;647995;212;31924;-76
2022/04/30 03:44:16;;;;;;;2.00;1.17;;;4.50;1.40;;;5.69;100.00;95658.06;648016;216;31578;-73
2022/04/30 03:47:00;;;;;;;1.90;1.50;;;4.50;1.40;;;5.64;100.00;95661.02;647713;216;42249;-75
2022/04/30 03:49:42;;;;;;;2.00;1.50;;;4.50;1.40;;;5.66;100.00;95662.41;646243;212;31541;-74
2022/04/30 03:52:30;;;;;;;4.22;2.00;;;4.60;1.40;;;5.74;100.00;95667.31;647905;212;31593;-75
2022/04/30 03:55:09;;;;;;;3.08;1.75;;;4.70;1.40;;;5.73;100.00;95666.08;646370;212;31585;-74
2022/04/30 03:57:51;;;;;;;2.87;2.67;;;4.70;1.40;;;5.90;100.00;95668.83;646327;216;31740;-74
2022/04/30 04:00:33;;;;;;;4.57;2.45;;;4.80;1.40;;;6.00;100.00;95673.37;646718;216;31560;-74
2022/04/30 04:03:15;;;;;;;2.90;1.90;;;4.90;1.40;;;6.14;100.00;95673.66;646878;212;42194;-76
2022/04/30 04:05:58;;;;;;;2.50;1.80;;;4.90;1.40;;;6.17;100.00;95674.45;646160;212;31484;-75
2022/04/30 04:08:39;;;;;;;3.10;1.92;;;5.00;1.40;;;6.14;100.00;95681.45;637671;216;32275;-75
2022/04/30 04:11:24;;;;;;;1.85;1.35;;;5.00;1.40;;;6.11;100.00;95680.57;646952;216;31571;-73
2022/04/30 04:19:30;;;;;;;2.40;2.20;;;5.20;1.40;;;6.35;100.00;95667.62;648001;212;31722;-74
2022/04/30 04:22:11;;;;;;;3.83;2.33;;;5.20;1.40;;;6.43;100.00;95675.89;646417;212;31598;-74
2022/04/30 04:27:43;;;;;;;2.85;1.62;;;5.20;1.40;;;6.56;100.00;95683.16;646760;216;31583;-77
2022/04/30 04:30:26;;;;;;;2.37;1.33;;;5.30;1.40;;;6.89;100.00;95684.14;647099;216;31669;-75
2022/04/30 04:35:51;;;;;;;1.98;1.77;;;5.60;1.40;;;7.04;100.00;95685.00;645747;216;31688;-73
2022/04/30 04:38:34;;;;;;;2.70;1.67;;;5.50;1.40;;;6.85;100.00;95686.23;619456;222;32482;-74
2022/04/30 04:41:16;;;;;;;1.70;1.60;;;5.50;1.40;;;6.81;100.00;95696.86;646963;212;32345;-74
2022/04/30 04:43:58;;;;;;;2.07;1.87;;;5.50;1.40;;;6.86;100.00;95698.89;647270;216;33101;-76
2022/04/30 04:46:39;;;;;;;3.85;1.77;;;5.50;1.40;;;7.04;100.00;95694.37;647322;216;31572;-74
2022/04/30 04:49:21;;;;;;;1.75;1.60;;;5.60;1.40;;;7.35;100.00;95696.98;647151;216;31531;-77
2022/04/30 04:52:05;;;;;;;1.70;1.60;;;5.80;1.40;;;7.65;100.00;95691.73;645941;216;31600;-73
2022/04/30 04:54:47;;;;;;;2.80;1.80;;;6.00;1.40;;;7.58;100.00;95693.74;646092;216;31579;-72
2022/04/30 04:57:30;;;;;;;4.83;2.10;;;6.00;1.40;;;7.75;100.00;95697.55;620840;222;31895;-75
2022/04/30 05:00:13;;;;;;;3.78;2.00;;;6.10;1.40;;;7.64;100.00;95703.02;642867;216;31842;-74
2022/04/30 05:03:00;;;;;;;3.70;1.90;;;6.10;1.40;;;7.65;100.00;95707.22;647158;212;31604;-73
2022/04/30 05:05:48;;;;;;;2.12;1.77;;;6.10;1.40;;;7.50;100.00;95717.20;648350;216;31917;-74
2022/04/30 05:08:36;;;;;;;1.95;1.70;;;5.90;1.40;;;7.10;100.00;95728.23;641175;216;31706;-73
2022/04/30 05:11:23;;;;;;;1.80;1.70;;;5.70;1.40;;;6.82;100.00;95723.37;648634;216;31588;-73
2022/04/30 05:14:07;;;;;;;1.80;1.50;;;5.50;1.40;;;6.91;100.00;95711.63;646974;216;31577;-75
2022/04/30 05:16:55;;;;;;;3.20;2.60;;;5.60;1.40;;;7.15;100.00;95716.25;647714;212;31550;-75
2022/04/30 05:19:42;;;;;;;3.73;1.90;;;5.90;1.40;;;7.17;100.00;95724.55;647130;212;32107;-73
2022/04/30 05:22:26;;;;;;;2.12;1.70;;;6.00;1.40;;;7.15;100.00;95730.97;646225;212;31584;-74
2022/04/30 05:25:13;;;;;;;2.43;2.10;;;6.20;1.40;;;7.26;100.00;95732.03;646646;216;32208;-72
2022/04/30 05:27:57;;;;;;;2.60;2.40;;;6.30;1.40;;;7.37;100.00;95727.02;620052;222;32060;-76
2022/04/30 05:30:45;;;;;;;2.20;2.10;;;6.40;1.40;;;7.54;100.00;95728.30;646131;216;31907;-72
2022/04/30 05:35:58;;;;;;;3.42;2.92;;;6.70;1.40;;;7.85;100.00;95719.74;646898;216;31576;-73
2022/04/30 05:38:44;;;;;;;1.53;1.40;;;6.90;1.40;;;8.13;100.00;95721.61;647916;212;31565;-77
2022/04/30 05:41:32;;;;;;;2.72;2.35;;;7.10;1.40;;;8.43;100.00;95723.39;646641;212;31597;-73
2022/04/30 05:44:14;;;;;;;3.83;2.40;;;7.30;1.40;;;8.53;100.00;95716.70;646760;216;31528;-73
2022/04/30 05:46:56;;;;;;;2.80;2.40;;;7.50;1.40;;;8.92;100.00;95722.58;646223;216;31592;-73
2022/04/30 05:49:43;;;;;;;4.73;2.83;;;7.80;1.40;;;9.43;100.00;95726.11;647885;212;31584;-75
2022/04/30 05:52:25;;;;;;;4.60;3.20;;;8.20;1.40;;;9.47;100.00;95729.41;647451;212;31588;-75
2022/04/30 05:55:07;;;;;;;2.53;2.33;;;8.30;1.40;;;9.35;100.00;95735.80;648243;216;32342;-73
2022/04/30 05:57:51;;;;;;;3.13;2.30;;;7.90;1.40;;;9.51;100.00;95722.78;646829;216;31612;-73
2022/04/30 06:00:39;;;;;;;3.77;1.90;;;8.10;1.40;;;9.89;100.00;95724.05;649047;216;32155;-79
2022/04/30 06:03:26;;;;;;;2.90;2.70;;;8.40;1.40;;;10.11;100.00;95729.11;646075;216;31728;-76
2022/04/30 06:06:08;;;;;;;3.07;2.77;;;8.50;1.40;;;9.89;100.00;95730.38;645851;216;31792;-74
2022/04/30 06:08:50;;;;;;;3.37;3.08;;;8.40;1.40;;;9.90;100.00;95730.90;646302;216;31724;-73
2022/04/30 06:11:31;;;;;;;3.20;2.80;;;8.60;1.40;;;10.59;100.00;95723.89;620256;226;32353;-73
2022/04/30 06:14:16;;;;;;;12.60;3.40;;;9.00;1.40;;;11.21;100.00;95715.69;646436;216;31605;-73
2022/04/30 06:16:59;;;;;;;2.90;2.40;;;9.50;1.40;;;11.22;100.00;95717.56;645839;216;31570;-74
2022/04/30 06:19:40;;;;;;;6.80;3.20;;;9.60;1.40;;;11.78;100.00;95714.30;641433;216;31842;-73
2022/04/30 06:22:21;;;;;;;4.80;3.30;;;10.00;1.40;;;12.17;100.00;95718.93;646337;216;42164;-73
2022/04/30 06:25:03;;;;;;;3.33;3.03;;;10.20;1.40;;;12.15;100.00;95722.30;647973;216;42199;-73
2022/04/30 06:27:45;;;;;;;3.00;2.70;;;10.30;1.40;;;12.22;100.00;95722.18;646512;216;31560;-73
2022/04/30 06:30:31;;;;;;;3.97;3.40;;;10.30;1.40;;;12.50;100.00;95713.28;647313;216;31538;-74
2022/04/30 06:35:51;;;;;;;4.00;3.12;;;10.60;1.40;;;12.66;100.00;95706.44;645833;212;42343;-73
2022/04/30 06:38:36;;;;;;;3.53;3.07;;;10.80;1.40;;;12.57;100.00;95709.77;644797;216;31741;-73
2022/04/30 06:41:23;;;;;;;3.40;2.90;;;10.70;1.40;;;12.20;100.00;95709.50;619879;226;42831;-78
2022/04/30 06:44:11;;;;;;;3.20;2.90;;;10.80;1.40;;;12.38;100.00;95701.41;647042;212;31597;-73
2022/04/30 06:46:53;;;;;;;3.60;3.05;;;10.80;1.40;;;12.58;100.00;95706.66;646304;216;31591;-73
2022/04/30 06:49:35;;;;;;;4.93;3.40;;;11.00;1.40;;;12.35;100.00;95711.11;646268;216;31595;-74
2022/04/30 06:52:16;;;;;;;5.10;2.70;;;11.00;1.40;;;12.53;100.00;95712.61;647892;212;31580;-73
2022/04/30 06:57:47;;;;;;;4.20;3.60;;;11.00;1.40;;;12.42;100.00;95716.21;646619;212;41409;-73
2022/04/30 07:03:19;;;;;;;4.03;2.60;;;11.00;1.40;;;12.47;100.00;95706.55;647836;216;31947;-73
2022/04/30 07:06:03;;;;;;;4.30;3.10;;;11.10;1.40;;;12.53;100.00;95707.66;645210;212;42191;-73
2022/04/30 07:08:44;;;;;;;3.80;3.50;;;11.10;1.40;;;12.46;100.00;95710.50;645953;216;31655;-73
2022/04/30 07:11:29;;;;;;;4.20;3.53;;;11.10;1.40;;;12.50;100.00;95706.81;618554;226;31974;-74
2022/04/30 07:14:11;;;;;;;3.00;2.70;;;11.30;1.40;;;12.78;100.00;95710.64;647429;216;31570;-74
2022/04/30 07:16:52;;;;;;;3.07;2.77;;;11.40;1.40;;;12.74;100.00;95713.50;645620;212;31602;-73
2022/04/30 07:19:34;;;;;;;3.10;2.63;;;11.50;1.40;;;12.90;100.00;95717.05;646147;216;31566;-75
2022/04/30 07:22:19;;;;;;;3.27;2.90;;;11.50;1.40;;;13.03;100.00;95716.23;646652;216;31595;-73
2022/04/30 07:25:01;;;;;;;3.73;3.43;;;11.60;1.40;;;13.06;100.00;95722.12;645936;212;31619;-73
2022/04/30 07:27:42;;;;;;;3.60;2.83;;;11.50;1.40;;;12.64;100.00;95721.46;646164;212;32164;-74
2022/04/30 07:32:58;;;;;;;5.73;3.90;;;11.10;1.40;;;12.17;100.00;95725.77;646489;216;31620;-74
2022/04/30 07:35:55;;;;;;;4.00;3.37;;;10.90;1.40;;;12.36;100.00;95726.15;646943;212;42230;-73
2022/04/30 07:38:36;;;;;;;4.40;3.20;;;11.10;1.40;;;12.49;100.00;95735.92;645917;216;31598;-72
2022/04/30 07:46:36;;;;;;;5.82;3.20;;;11.30;1.40;;;12.69;100.00;95735.55;645650;216;31546;-76
2022/04/30 07:49:16;;;;;;;4.30;3.47;;;11.50;1.40;;;12.93;100.00;95735.25;646573;216;31689;-74
2022/04/30 07:51:58;;;;;;;4.20;3.70;;;11.90;1.40;;;13.08;98.43;95735.03;618148;226;32022;-74
2022/04/30 07:54:43;;;;;;;3.83;2.80;;;11.90;1.40;;;13.40;94.78;95739.09;646597;216;32754;-74
2022/04/30 07:57:25;;;;;;;5.43;4.32;;;12.10;1.40;;;13.42;93.53;95736.30;647233;212;32153;-74
2022/04/30 08:00:11;;;;;;;3.30;3.00;;;12.00;1.40;;;13.58;92.08;95739.91;646542;212;31721;-74
2022/04/30 08:02:51;;;;;;;5.68;3.05;;;12.20;1.40;;;13.44;90.44;95737.52;645685;216;31584;-73
2022/04/30 08:05:34;;;;;;;3.90;3.20;;;12.00;1.40;;;13.54;88.74;95732.63;646996;216;32254;-75
2022/04/30 08:08:15;;;;;;;4.85;3.92;;;12.00;1.40;;;13.31;88.69;95733.44;645648;216;31776;-74
2022/04/30 08:10:56;;;;;;;4.10;3.67;;;12.00;1.40;;;13.60;87.58;95736.56;645771;216;31734;-74
2022/04/30 08:13:38;;;;;;;3.83;3.20;;;12.30;1.40;;;13.69;87.46;95738.55;646906;216;31546;-75
2022/04/30 08:16:20;;;;;;;5.57;3.50;;;12.40;1.40;;;13.75;87.54;95738.31;647128;216;33091;-75
2022/04/30 08:19:02;;;;;;;4.30;3.10;;;12.60;1.40;;;14.24;85.50;95739.25;646022;216;31633;-74
2022/04/30 08:21:48;;;;;;;5.30;4.50;;;12.90;1.40;;;14.65;84.85;95747.17;646135;216;33277;-74
2022/04/30 08:24:28;;;;;;;7.60;4.20;;;13.30;1.40;;;15.02;84.41;95749.88;646615;216;31984;-74
2022/04/30 08:27:10;;;;;;;4.97;4.30;;;13.90;1.40;;;16.07;78.79;95740.66;644863;212;31602;-73
2022/04/30 08:29:52;;;;;;;4.35;3.95;;;14.10;1.40;;;15.90;78.09;95746.24;647377;216;31533;-74
2022/04/30 08:32:33;;;;;;;6.32;3.80;;;14.20;1.40;;;16.56;75.58;95742.75;647624;216;31628;-75
2022/04/30 08:35:53;;;;;;;4.55;4.15;;;14.50;1.40;;;16.25;75.58;95746.50;647263;212;32197;-75
2022/04/30 08:38:33;;;;;;;3.83;3.40;;;14.50;1.40;;;15.90;78.78;95748.37;647293;216;31657;-75
2022/04/30 08:41:16;;;;;;;3.97;3.25;;;14.20;1.40;;;15.74;78.61;95753.73;644885;216;31790;-74
2022/04/30 08:43:56;;;;;;;4.05;3.42;;;14.00;1.40;;;15.36;80.41;95752.95;646434;216;31635;-74
2022/04/30 08:46:38;;;;;;;3.78;3.30;;;13.90;1.40;;;15.83;80.15;95754.41;646104;216;31593;-74
2022/04/30 08:49:20;;;;;;;4.05;3.60;;;14.20;1.40;;;15.77;80.90;95757.33;647011;216;31535;-74
2022/04/30 08:52:01;;;;;;;3.80;3.40;;;14.20;1.40;;;15.64;80.32;95762.52;647969;212;31562;-76
2022/04/30 08:54:43;;;;;;;4.57;3.70;;;13.70;1.40;;;15.67;80.71;95767.04;646493;216;31554;-76
2022/04/30 08:57:28;;;;;;;4.03;3.35;;;13.90;1.40;;;15.71;82.25;95769.69;645589;216;31550;-73
2022/04/30 09:00:13;;;;;;;4.20;3.37;;;13.90;1.40;;;15.54;82.69;95772.16;646410;216;31994;-74
2022/04/30 09:02:55;;;;;;;4.00;3.37;;;13.80;1.40;;;15.53;83.28;95766.62;648455;216;31556;-74
2022/04/30 09:05:37;;;;;;;4.20;3.08;;;13.90;1.40;;;15.52;83.57;95760.37;646879;216;31628;-75
2022/04/30 09:08:21;;;;;;;3.87;3.15;;;13.80;1.40;;;15.58;84.29;95763.91;642407;212;31736;-74
2022/04/30 09:11:08;;;;;;;4.07;3.30;;;13.70;1.40;;;15.48;85.22;95760.91;647074;216;31541;-75
2022/04/30 09:13:49;;;;;;;4.57;3.03;;;13.50;1.40;;;15.25;86.61;95760.09;645902;216;31596;-74
2022/04/30 09:16:32;;;;;;;3.85;3.50;;;13.50;1.40;;;15.30;87.28;95757.08;645852;216;31624;-74
2022/04/30 09:19:13;;;;;;;4.78;3.10;;;13.70;1.40;;;15.68;85.44;95756.63;619220;222;43205;-75
2022/04/30 09:21:55;;;;;;;3.25;2.95;;;13.80;1.40;;;15.41;86.04;95755.76;646482;216;31974;-74
2022/04/30 09:24:48;;;;;;;5.10;3.97;;;13.60;1.40;;;15.56;86.61;95754.45;618831;222;31990;-74
2022/04/30 09:27:28;;;;;;;4.10;3.53;;;13.90;1.40;;;15.91;84.92;95749.29;646213;216;31586;-74
2022/04/30 09:30:20;;;;;;;3.42;2.92;;;14.00;1.40;;;15.61;86.51;95753.78;646186;216;31607;-75
2022/04/30 09:38:56;;;;;;;3.15;2.85;;;13.60;1.40;;;15.52;86.94;95752.03;646023;216;33146;-74
2022/04/30 09:41:37;;;;;;;3.37;3.08;;;13.70;1.40;;;15.18;91.68;95750.78;647075;216;31579;-74
2022/04/30 09:44:19;;;;;;;3.40;2.87;;;13.50;1.40;;;14.62;97.92;95767.37;646325;216;31544;-74
2022/04/30 09:47:01;;;;;;;3.47;2.90;;;12.90;1.40;;;14.60;98.35;95761.05;645215;216;32265;-74
2022/04/30 09:55:20;;;;;;;3.80;3.33;;;13.80;1.40;;;15.44;93.96;95761.94;646401;212;31576;-73
2022/04/30 09:58:09;;;;;;;3.80;2.78;;;13.80;1.40;;;14.81;96.77;95766.00;648238;216;31816;-79
2022/04/30 10:00:58;;;;;;;4.50;3.05;;;13.60;1.40;;;15.09;96.01;95765.38;645882;216;31610;-75
2022/04/30 10:03:39;;;;;;;3.97;2.58;;;13.80;1.40;;;14.85;100.00;95767.17;619266;226;31870;-73
2022/04/30 10:06:24;;;;;;;3.70;2.55;;;13.60;1.40;;;15.48;96.32;95762.08;647504;212;42191;-73
2022/04/30 10:09:08;;;;;;;4.62;2.80;;;13.90;1.40;;;15.24;91.33;95762.30;638113;216;31716;-73
2022/04/30 10:14:44;;;;;;;4.60;3.30;;;13.60;1.40;;;14.92;90.99;95768.00;618434;222;42578;-75
2022/04/30 10:17:29;;;;;;;2.77;2.40;;;13.30;1.40;;;14.53;94.83;95771.70;642346;216;31576;-73
2022/04/30 10:20:18;;;;;;;3.10;2.80;;;12.90;1.40;;;14.37;94.75;95779.45;646689;212;31608;-73
2022/04/30 10:22:58;;;;;;;2.83;2.60;;;12.80;1.40;;;14.30;94.15;95781.02;647047;212;31626;-74
2022/04/30 10:25:42;;;;;;;2.83;2.35;;;12.70;1.40;;;14.03;96.63;95787.81;646185;216;31538;-73
2022/04/30 10:28:24;;;;;;;3.50;3.17;;;12.60;1.40;;;14.02;96.76;95787.95;646243;212;42208;-73
2022/04/30 10:31:09;;;;;;;3.80;2.20;;;12.60;1.40;;;13.82;99.56;95789.20;646519;216;31550;-73
2022/04/30 10:35:51;;;;;;;2.90;2.70;;;12.20;1.40;;;13.48;100.00;95787.72;647160;216;31557;-74
2022/04/30 10:38:32;;;;;;;3.58;2.50;;;12.20;1.40;;;13.52;100.00;95792.08;646721;216;31598;-73
2022/04/30 10:41:14;;;;;;;3.42;2.58;;;12.20;1.40;;;13.39;100.00;95792.42;645909;212;42890;-73
2022/04/30 10:44:00;;;;;;;3.53;2.97;;;12.10;1.40;;;13.25;100.00;95794.52;646142;212;39114;-73
2022/04/30 10:46:45;;;;;;;2.90;2.62;;;12.10;1.40;;;13.15;100.00;95796.92;646457;216;42760;-74
2022/04/30 10:49:26;;;;;;;3.47;2.37;;;12.00;1.40;;;13.05;100.00;95798.81;647499;216;31772;-72
2022/04/30 10:52:09;;;;;;;3.55;2.70;;;11.90;1.40;;;12.91;100.00;95800.23;647551;212;31625;-74
2022/04/30 10:54:50;;;;;;;2.70;2.08;;;11.80;1.40;;;12.68;100.00;95799.02;646554;216;33800;-73
2022/04/30 10:57:32;;;;;;;3.28;2.75;;;11.70;1.40;;;12.62;100.00;95793.70;646419;216;31595;-75
2022/04/30 11:00:14;;;;;;;3.30;2.70;;;11.60;1.40;;;12.37;100.00;95788.89;617517;225;32455;-73
2022/04/30 11:02:55;;;;;;;3.83;3.15;;;11.30;1.40;;;11.90;100.00;95790.89;642776;216;42263;-76
2022/04/30 11:05:37;;;;;;;3.10;2.63;;;10.90;1.40;;;11.57;100.00;95788.86;646933;216;31590;-74
2022/04/30 11:08:18;;;;;;;3.60;3.13;;;10.70;1.40;;;11.46;100.00;95785.19;645595;212;31556;-74
2022/04/30 11:11:22;;;;;;;;;;;;;;;;;;;;;
2022/04/30 11:14:57;;;;;;;3.70;2.70;;;10.60;1.40;;;11.42;100.00;95780.06;639819;215;31645;-80
2022/04/30 11:17:46;;;;;;;3.40;2.70;;;10.60;1.40;;;11.45;100.00;95779.78;645619;216;31611;-74
2022/04/30 11:20:28;;;;;;;2.90;2.60;;;10.60;1.40;;;11.32;100.00;95776.33;646216;212;31606;-73
2022/04/30 11:23:09;;;;;;;3.03;2.70;;;10.40;1.40;;;11.27;100.00;95770.22;646763;212;42229;-73
2022/04/30 11:25:51;;;;;;;3.07;2.47;;;10.30;1.40;;;11.10;100.00;95767.11;647043;216;42179;-73
2022/04/30 11:28:33;;;;;;;4.80;3.80;;;10.10;1.40;;;11.07;100.00;95771.55;645878;216;31565;-73
2022/04/30 11:31:22;;;;;;;2.75;2.40;;;10.10;1.40;;;11.13;100.00;95771.45;645487;216;42752;-74
2022/04/30 11:35:54;;;;;;;3.30;3.00;;;10.10;1.40;;;11.04;100.00;95775.41;620109;224;31953;-75
2022/04/30 11:38:35;;;;;;;4.70;2.40;;;10.00;1.40;;;11.12;100.00;95778.63;645962;216;31613;-74
2022/04/30 11:41:17;;;;;;;2.60;2.40;;;10.10;1.40;;;11.22;100.00;95775.15;647470;216;31594;-74
2022/04/30 11:43:59;;;;;;;3.65;1.92;;;10.20;1.40;;;11.17;100.00;95772.05;646126;216;32211;-73
2022/04/30 11:46:40;;;;;;;3.07;2.77;;;10.10;1.40;;;11.16;100.00;95770.06;645719;216;31696;-74
2022/04/30 11:49:24;;;;;;;3.70;2.70;;;10.10;1.40;;;11.29;100.00;95777.25;645749;216;31954;-74
2022/04/30 11:52:06;;;;;;;2.70;2.37;;;10.20;1.40;;;11.42;100.00;95768.29;647876;212;31709;-73
2022/04/30 11:54:51;;;;;;;7.30;4.47;;;10.30;1.40;;;11.38;100.00;95766.08;647527;212;31653;-73
2022/04/30 11:57:34;;;;;;;3.60;3.17;;;10.30;1.40;;;11.43;100.00;95768.42;647031;216;31710;-74
2022/04/30 12:00:15;;;;;;;3.10;2.30;;;10.30;1.40;;;11.44;100.00;95767.92;646014;214;41929;-73
2022/04/30 12:02:57;;;;;;;3.40;2.30;;;10.40;1.40;;;11.47;100.00;95768.18;646111;216;31613;-74
2022/04/30 12:05:39;;;;;;;3.50;2.33;;;10.40;1.40;;;11.48;100.00;95768.00;646984;212;31575;-75
2022/04/30 12:11:02;;;;;;;3.47;2.00;;;10.50;1.40;;;11.67;100.00;95766.59;642825;216;31582;-74
2022/04/30 12:13:43;;;;;;;2.73;2.43;;;10.60;1.40;;;11.93;100.00;95777.91;646556;216;42348;-74
2022/04/30 12:16:34;;;;;;;3.40;3.03;;;10.80;1.40;;;12.06;100.00;95773.50;646043;216;34180;-74
2022/04/30 12:25:10;;;;;;;4.83;2.20;;;11.20;1.40;;;12.42;100.00;95761.91;646358;216;32257;-74
2022/04/30 12:27:55;;;;;;;3.23;2.67;;;10.90;1.40;;;12.49;100.00;95763.06;647037;216;42184;-74
2022/04/30 12:30:37;;;;;;;2.90;2.60;;;11.20;1.40;;;12.54;100.00;95753.53;646580;216;42227;-74
2022/04/30 12:35:55;;;;;;;2.78;1.98;;;11.20;1.40;;;12.89;100.00;95749.98;619650;225;42477;-74
2022/04/30 12:38:36;;;;;;;3.40;2.30;;;11.40;1.40;;;12.99;100.00;95749.65;618036;226;43290;-75
2022/04/30 12:41:18;;;;;;;2.40;2.20;;;11.40;1.40;;;13.00;100.00;95747.73;649035;216;32201;-74
2022/04/30 12:44:00;;;;;;;2.55;2.22;;;11.40;1.40;;;13.32;100.00;95741.94;646623;212;31601;-75
2022/04/30 12:46:44;;;;;;;2.62;1.92;;;11.50;1.40;;;13.08;100.00;95743.48;646608;216;31609;-75
2022/04/30 12:49:29;;;;;;;3.47;2.40;;;11.30;1.40;;;12.97;100.00;95742.92;647037;216;31555;-75
2022/04/30 12:52:11;;;;;;;2.13;1.93;;;11.30;1.40;;;12.92;100.00;95744.04;618741;225;31903;-74
2022/04/30 12:54:52;;;;;;;2.67;2.40;;;11.40;1.40;;;13.12;100.00;95737.48;646368;216;31580;-75
2022/04/30 12:57:34;;;;;;;2.50;1.90;;;11.70;1.40;;;13.21;100.00;95735.84;647445;216;31793;-74
2022/04/30 13:00:16;;;;;;;2.10;1.60;;;11.90;1.40;;;13.41;100.00;95734.33;618852;223;33985;-75